This is the latest recevied weather packets stored in our database for station/object K7TSD. If no packets are shown the sender has not sent any weather packets the latest 10 day(s).
| Time | Temp. | Humidity | Pressure | Rain* | Wind** | Luminosity | Snow |
|---|---|---|---|---|---|---|---|
| 1778168576 | 9.44° C | 81% | 1010.1 hPa | 1.78 mm | - | 50 W/m² | - |
| 1778168273 | 11.11° C | 72% | 1009.9 hPa | 0 mm | - | 73 W/m² | - |
| 1778167969 | 11.67° C | 68% | 1009.6 hPa | 0 mm | - | 64 W/m² | - |
| 1778167666 | 12.22° C | 67% | 1009.8 hPa | 0 mm | - | 123 W/m² | - |
| 1778167363 | 11.67° C | 67% | 1009.6 hPa | 0 mm | - | 128 W/m² | - |
| 1778167058 | 13.89° C | 62% | 1009.4 hPa | 0 mm | - | 148 W/m² | - |
| 1778166755 | 13.33° C | 58% | 1009.1 hPa | 0 mm | - | 138 W/m² | - |
| 1778166452 | 13.33° C | 59% | 1009.2 hPa | 0 mm | - | 163 W/m² | - |
| 1778166149 | 13.33° C | 58% | 1008.9 hPa | 0 mm | - | 114 W/m² | - |
| 1778165844 | 13.33° C | 58% | 1008.7 hPa | 0 mm | - | 135 W/m² | - |
| 1778165541 | 13.33° C | 58% | 1008.7 hPa | 0 mm | - | 109 W/m² | - |
| 1778165238 | 13.33° C | 57% | 1009.3 hPa | 0 mm | - | 313 W/m² | - |
| 1778164936 | 13.33° C | 59% | 1008.9 hPa | 0 mm | - | 86 W/m² | - |
| 1778164633 | 13.33° C | 60% | 1008.7 hPa | 0 mm | - | 282 W/m² | - |
| 1778164330 | 13.33° C | 59% | 1008.7 hPa | 0 mm | - | 90 W/m² | - |
| 1778164025 | 12.78° C | 60% | 1009.1 hPa | 0 mm | - | 294 W/m² | - |
| 1778163722 | 12.78° C | 60% | 1009.2 hPa | 0 mm | - | 170 W/m² | - |
| 1778163418 | 12.78° C | 60% | 1009.2 hPa | 0 mm | - | 271 W/m² | - |
| 1778163115 | 12.78° C | 61% | 1009.4 hPa | 0 mm | - | 138 W/m² | - |
| 1778162812 | 13.33° C | 59% | 1009.5 hPa | 0 mm | - | 132 W/m² | - |
| 1778162509 | 12.78° C | 59% | 1009.5 hPa | 0 mm | - | 246 W/m² | - |
| 1778162206 | 12.22° C | 59% | 1009.5 hPa | 0 mm | - | 187 W/m² | - |
| 1778161904 | 11.67° C | 60% | 1009.2 hPa | 0 mm | - | 173 W/m² | - |
| 1778161600 | 11.67° C | 60% | 1009.4 hPa | 0 mm | - | 107 W/m² | - |
| 1778161296 | 11.67° C | 60% | 1009.3 hPa | 0 mm | - | 93 W/m² | - |
* Rain latest hour (hover to see other rain measurements)
** Current wind speed in m/s (hover to see current wind gust speed)